createdAt,value
2022-08-17T00:00:51.882Z,38.72
2022-08-17T00:03:18.677Z,36.25
2022-08-17T00:05:45.280Z,35.08
2022-08-17T00:08:12.374Z,35.25
2022-08-17T00:10:38.892Z,35.92
2022-08-17T00:13:07.168Z,32.60
2022-08-17T00:15:33.526Z,39.33
2022-08-17T00:17:59.947Z,34.88
2022-08-17T00:20:33.555Z,38.75
2022-08-17T00:23:02.467Z,34.85
2022-08-17T00:25:29.074Z,41.10
2022-08-17T00:27:55.917Z,37.92
2022-08-17T00:30:24.605Z,39.72
2022-08-17T00:33:14.778Z,41.45
2022-08-17T00:35:38.596Z,40.35
2022-08-17T00:38:07.600Z,41.47
2022-08-17T00:40:44.359Z,38.70
2022-08-17T00:43:29.508Z,36.80
2022-08-17T00:45:56.241Z,38.07
2022-08-17T00:48:29.570Z,37.47
2022-08-17T00:51:12.218Z,38.63
2022-08-17T00:53:40.539Z,38.22
2022-08-17T00:56:07.962Z,40.10
2022-08-17T00:58:36.142Z,37.50
2022-08-17T01:01:03.735Z,44.20
2022-08-17T01:03:31.096Z,39.15
2022-08-17T01:06:00.047Z,43.13
2022-08-17T01:08:28.085Z,40.65
2022-08-17T01:10:59.778Z,38.35
2022-08-17T01:13:30.673Z,32.13
2022-08-17T01:15:59.897Z,35.80
2022-08-17T01:18:26.594Z,35.38
2022-08-17T01:20:54.954Z,37.53
2022-08-17T01:23:23.378Z,35.30
2022-08-17T01:25:51.503Z,36.53
2022-08-17T01:28:33.630Z,35.05
2022-08-17T01:31:06.907Z,34.22
2022-08-17T01:33:33.661Z,35.45
2022-08-17T01:36:00.724Z,34.72
2022-08-17T01:38:31.633Z,32.90
2022-08-17T01:41:03.164Z,37.28
2022-08-17T01:43:39.612Z,38.97
2022-08-17T01:46:06.117Z,36.85
2022-08-17T01:48:33.663Z,41.55
2022-08-17T01:51:00.428Z,36.97
2022-08-17T01:53:31.058Z,37.20
2022-08-17T01:55:59.240Z,37.92
2022-08-17T01:58:25.908Z,37.88
2022-08-17T02:01:00.677Z,34.55
2022-08-17T02:03:28.885Z,34.42
2022-08-17T02:05:55.365Z,34.60
2022-08-17T02:08:37.015Z,42.75
2022-08-17T02:11:11.172Z,37.00
2022-08-17T02:13:38.393Z,41.10
2022-08-17T02:16:04.863Z,32.80
2022-08-17T02:18:31.273Z,35.50
2022-08-17T02:20:57.731Z,39.15
2022-08-17T02:23:25.281Z,37.83
2022-08-17T02:25:52.242Z,33.58
2022-08-17T02:28:18.996Z,34.70
2022-08-17T02:30:59.984Z,37.30
2022-08-17T02:33:42.167Z,37.53
2022-08-17T02:36:10.881Z,30.20
2022-08-17T02:38:38.134Z,36.08
2022-08-17T02:41:05.210Z,33.25
2022-08-17T02:43:31.858Z,30.75
2022-08-17T02:45:58.381Z,31.17
2022-08-17T02:48:30.534Z,30.55
2022-08-17T02:50:57.844Z,32.15
2022-08-17T02:53:24.144Z,33.83
2022-08-17T02:55:52.447Z,31.90
2022-08-17T02:58:35.101Z,34.33
2022-08-17T03:01:03.347Z,34.40
2022-08-17T03:03:29.954Z,34.53
2022-08-17T03:05:56.624Z,34.42
2022-08-17T03:08:23.322Z,34.25
2022-08-17T03:10:50.586Z,33.30
2022-08-17T03:13:17.383Z,39.38
2022-08-17T03:15:45.250Z,31.45
2022-08-17T03:18:19.204Z,30.92
2022-08-17T03:20:51.257Z,30.77
2022-08-17T03:23:17.680Z,34.30
2022-08-17T03:25:45.979Z,33.38
2022-08-17T03:28:12.738Z,33.53
2022-08-17T03:30:39.888Z,31.95
2022-08-17T03:33:07.587Z,29.60
2022-08-17T03:35:34.942Z,29.48
2022-08-17T03:38:01.471Z,35.20
2022-08-17T03:40:55.274Z,32.22
2022-08-17T03:43:15.041Z,36.83
2022-08-17T03:46:01.108Z,30.40
2022-08-17T03:51:34.532Z,33.22
2022-08-17T03:54:19.294Z,28.92
2022-08-17T03:56:56.941Z,29.50
2022-08-17T03:59:23.600Z,32.83
2022-08-17T04:01:53.811Z,33.13
2022-08-17T04:04:21.049Z,33.47
2022-08-17T04:06:54.227Z,28.05
2022-08-17T04:09:20.700Z,29.73
2022-08-17T04:11:47.342Z,30.90
2022-08-17T04:14:13.768Z,27.08
2022-08-17T04:16:40.241Z,30.55
2022-08-17T04:19:07.081Z,27.50
2022-08-17T04:21:34.481Z,28.92
2022-08-17T04:24:01.060Z,28.15
2022-08-17T04:26:52.717Z,26.60
2022-08-17T04:29:14.801Z,24.80
2022-08-17T04:31:41.180Z,25.42
2022-08-17T04:34:07.692Z,27.20
2022-08-17T04:36:34.038Z,24.15
2022-08-17T04:39:00.641Z,24.85
2022-08-17T04:41:45.552Z,28.10
2022-08-17T04:44:12.478Z,24.00
2022-08-17T04:46:39.341Z,23.17
2022-08-17T04:49:07.755Z,27.23
2022-08-17T04:51:45.543Z,23.67
2022-08-17T04:54:24.890Z,25.15
2022-08-17T04:56:51.424Z,23.08
2022-08-17T04:59:19.758Z,20.75
2022-08-17T05:01:47.035Z,22.80
2022-08-17T05:04:21.347Z,21.20
2022-08-17T05:07:01.088Z,22.73
2022-08-17T05:09:27.630Z,22.98
2022-08-17T05:11:55.339Z,25.60
2022-08-17T05:14:22.802Z,19.65
2022-08-17T05:16:59.703Z,20.48
2022-08-17T05:19:27.480Z,19.77
2022-08-17T05:21:53.861Z,20.48
2022-08-17T05:24:42.467Z,21.10
2022-08-17T05:27:06.883Z,23.75
2022-08-17T05:29:34.315Z,23.85
2022-08-17T05:32:38.642Z,25.80
2022-08-17T05:34:59.397Z,18.25
2022-08-17T05:37:25.726Z,27.10
2022-08-17T05:39:53.363Z,21.88
2022-08-17T05:42:19.933Z,22.17
2022-08-17T05:44:46.261Z,20.83
2022-08-17T05:47:12.596Z,20.33
2022-08-17T05:49:38.932Z,21.45
2022-08-17T05:52:19.866Z,18.48
2022-08-17T05:54:58.623Z,19.05
2022-08-17T05:57:47.649Z,21.17
2022-08-17T06:00:26.331Z,17.05
2022-08-17T06:03:24.479Z,20.55
2022-08-17T06:05:55.336Z,16.90
2022-08-17T06:08:21.965Z,19.60
2022-08-17T06:10:48.573Z,17.42
2022-08-17T06:13:21.928Z,23.33
2022-08-17T06:16:02.378Z,15.23
2022-08-17T06:18:41.655Z,15.95
2022-08-17T06:21:11.592Z,18.15
2022-08-17T06:23:43.425Z,18.40
2022-08-17T06:26:27.513Z,16.40
2022-08-17T06:29:08.864Z,16.70
2022-08-17T06:31:45.288Z,22.77
2022-08-17T06:34:11.981Z,19.40
2022-08-17T06:36:50.336Z,17.80
2022-08-17T06:39:23.008Z,17.85
2022-08-17T06:42:09.454Z,25.88
2022-08-17T06:45:02.532Z,18.95
2022-08-17T06:47:31.580Z,19.15
2022-08-17T06:50:17.642Z,18.40
2022-08-17T06:52:55.919Z,17.50
2022-08-17T06:55:26.547Z,21.90
2022-08-17T06:57:55.138Z,18.73
2022-08-17T07:00:27.775Z,19.58
2022-08-17T07:03:12.614Z,19.95
2022-08-17T07:05:44.530Z,17.95
2022-08-17T07:08:35.203Z,20.88
2022-08-17T07:11:22.020Z,17.77
2022-08-17T07:13:53.683Z,18.20
2022-08-17T07:16:33.281Z,18.33
2022-08-17T07:18:59.892Z,16.25
2022-08-17T07:21:32.380Z,19.42
2022-08-17T07:24:03.333Z,20.15
2022-08-17T07:26:29.771Z,18.48
2022-08-17T07:28:56.249Z,17.85
2022-08-17T07:31:24.923Z,18.88
2022-08-17T07:34:02.467Z,18.10
2022-08-17T07:36:33.711Z,21.77
2022-08-17T07:39:01.411Z,18.15
2022-08-17T07:41:57.349Z,18.40
2022-08-17T07:44:15.838Z,21.58
2022-08-17T07:47:08.497Z,21.55
2022-08-17T07:49:37.045Z,19.95
2022-08-17T07:52:24.111Z,28.52
2022-08-17T07:54:51.980Z,34.30
2022-08-17T07:57:29.392Z,24.05
2022-08-17T08:00:02.124Z,22.27
2022-08-17T08:02:31.759Z,19.63
2022-08-17T08:05:02.855Z,19.75
2022-08-17T08:07:38.344Z,19.35
2022-08-17T08:10:07.868Z,21.23
2022-08-17T08:12:40.375Z,16.23
2022-08-17T08:15:14.973Z,16.58
2022-08-17T08:17:58.515Z,21.83
2022-08-17T08:20:53.330Z,18.60
2022-08-17T08:23:34.682Z,15.98
2022-08-17T08:26:21.277Z,16.10
2022-08-17T08:28:47.578Z,15.77
2022-08-17T08:31:41.609Z,16.27
2022-08-17T08:35:00.580Z,17.20
2022-08-17T08:37:30.379Z,18.42
2022-08-17T08:40:11.011Z,15.90
2022-08-17T08:42:43.636Z,15.27
2022-08-17T08:45:13.758Z,17.20
2022-08-17T08:47:58.807Z,17.38
2022-08-17T08:50:39.777Z,17.38
2022-08-17T08:53:11.978Z,15.93
2022-08-17T08:55:44.040Z,16.17
2022-08-17T08:58:31.801Z,16.15
2022-08-17T09:01:08.703Z,17.58
2022-08-17T09:03:52.922Z,18.80
2022-08-17T09:06:33.363Z,17.73
2022-08-17T09:09:13.648Z,16.70
2022-08-17T09:12:01.755Z,16.55
2022-08-17T09:14:44.934Z,16.98
2022-08-17T09:17:15.233Z,17.42
2022-08-17T09:19:46.420Z,18.58
2022-08-17T09:22:31.329Z,20.25
2022-08-17T09:25:08.114Z,17.83
2022-08-17T09:27:38.226Z,19.85
2022-08-17T09:30:07.868Z,20.88
2022-08-17T09:32:40.368Z,20.58
2022-08-17T09:35:19.339Z,24.48
2022-08-17T09:37:48.931Z,18.92
2022-08-17T09:40:21.540Z,23.20
2022-08-17T09:42:54.295Z,21.25
2022-08-17T09:45:38.804Z,23.45
2022-08-17T09:48:14.717Z,26.17
2022-08-17T09:50:57.368Z,21.70
2022-08-17T09:53:32.218Z,23.67
2022-08-17T09:55:58.588Z,22.33
2022-08-17T09:58:34.683Z,21.20
2022-08-17T10:01:13.389Z,19.55
2022-08-17T10:04:05.540Z,22.70
2022-08-17T10:06:35.380Z,21.45
2022-08-17T10:09:13.660Z,17.67
2022-08-17T10:12:06.579Z,21.63
2022-08-17T10:14:44.006Z,19.30
2022-08-17T10:17:20.399Z,23.73
2022-08-17T10:19:53.364Z,22.00
2022-08-17T10:22:41.605Z,24.02
2022-08-17T10:25:48.617Z,35.95
2022-08-17T10:28:19.723Z,24.90
2022-08-17T10:30:49.226Z,26.52
2022-08-17T10:33:17.069Z,26.55
2022-08-17T10:35:43.426Z,26.92
2022-08-17T10:38:27.584Z,27.40
2022-08-17T10:40:53.924Z,29.67
2022-08-17T10:43:44.714Z,30.48
2022-08-17T10:46:52.146Z,31.58
2022-08-17T10:49:18.574Z,32.72
2022-08-17T10:51:47.385Z,27.20
2022-08-17T10:54:25.761Z,30.73
2022-08-17T10:56:53.362Z,28.90
2022-08-17T10:59:34.940Z,32.53
2022-08-17T11:02:01.224Z,29.27
2022-08-17T11:04:43.274Z,31.23
2022-08-17T11:07:28.125Z,37.05
2022-08-17T11:10:00.326Z,33.85
2022-08-17T11:12:33.145Z,35.33
2022-08-17T11:15:00.362Z,35.78
2022-08-17T11:17:45.473Z,38.78
2022-08-17T11:20:16.234Z,37.05
2022-08-17T11:22:48.805Z,34.08
2022-08-17T11:25:17.673Z,33.60
2022-08-17T11:27:45.136Z,37.63
2022-08-17T11:30:13.758Z,37.80
2022-08-17T11:32:47.739Z,35.92
2022-08-17T11:35:15.016Z,33.72
2022-08-17T11:37:45.952Z,45.65
2022-08-17T11:40:27.715Z,38.35
2022-08-17T11:42:59.750Z,35.45
2022-08-17T11:45:33.064Z,33.25
2022-08-17T11:48:28.288Z,33.40
2022-08-17T11:51:18.154Z,36.15
2022-08-17T11:53:45.778Z,31.98
2022-08-17T11:56:12.089Z,29.58
2022-08-17T11:58:40.588Z,33.72
2022-08-17T12:01:06.895Z,32.15
2022-08-17T12:03:33.359Z,34.28
2022-08-17T12:06:30.419Z,28.10
2022-08-17T12:09:14.067Z,27.17
2022-08-17T12:11:58.767Z,29.95
2022-08-17T12:15:08.539Z,31.67
2022-08-17T12:17:39.658Z,30.08
2022-08-17T12:20:09.520Z,30.95
2022-08-17T12:23:00.966Z,30.77
2022-08-17T12:25:33.609Z,26.73
2022-08-17T12:28:06.412Z,31.55
2022-08-17T12:30:34.841Z,28.17
2022-08-17T12:33:01.322Z,28.30
2022-08-17T12:35:35.788Z,24.45
2022-08-17T12:38:02.960Z,30.23
2022-08-17T12:40:31.521Z,30.40
2022-08-17T12:43:03.833Z,31.52
2022-08-17T12:45:32.451Z,32.65
2022-08-17T12:48:12.694Z,27.38
2022-08-17T12:50:44.387Z,30.30
2022-08-17T12:53:30.975Z,29.42
2022-08-17T12:55:58.773Z,27.17
2022-08-17T12:58:28.045Z,30.77
2022-08-17T13:00:56.735Z,26.30
2022-08-17T13:03:24.000Z,30.98
2022-08-17T13:06:00.839Z,28.30
2022-08-17T13:08:30.281Z,27.45
2022-08-17T13:11:00.912Z,54.22
2022-08-17T13:13:28.950Z,35.83
2022-08-17T13:16:21.528Z,26.33
2022-08-17T13:18:48.001Z,30.75
2022-08-17T13:21:18.745Z,32.08
2022-08-17T13:24:02.336Z,29.92
2022-08-17T13:26:31.901Z,29.40
2022-08-17T13:28:58.586Z,29.58
2022-08-17T13:31:28.654Z,31.88
2022-08-17T13:34:13.953Z,32.42
2022-08-17T13:36:43.717Z,30.52
2022-08-17T13:39:16.847Z,30.17
2022-08-17T13:41:43.201Z,29.85
2022-08-17T13:44:28.294Z,30.55
2022-08-17T13:46:56.923Z,31.88
2022-08-17T13:49:23.623Z,31.63
2022-08-17T13:51:50.436Z,35.10
2022-08-17T13:54:20.443Z,30.42
2022-08-17T13:56:53.324Z,33.30
2022-08-17T13:59:54.830Z,29.55
2022-08-17T14:02:22.583Z,30.60
2022-08-17T14:04:52.953Z,34.50
2022-08-17T14:07:19.618Z,31.38
2022-08-17T14:10:06.233Z,32.58
2022-08-17T14:12:33.601Z,34.83
2022-08-17T14:15:00.195Z,32.88
2022-08-17T14:17:28.874Z,34.83
2022-08-17T14:19:55.268Z,30.98
2022-08-17T14:22:25.672Z,33.42
2022-08-17T14:24:52.057Z,33.50
2022-08-17T14:27:19.377Z,36.38
2022-08-17T14:29:45.725Z,35.72
2022-08-17T14:32:17.171Z,30.25
2022-08-17T14:34:44.807Z,29.15
2022-08-17T14:37:11.182Z,28.75
2022-08-17T14:39:37.714Z,27.88
2022-08-17T14:42:04.292Z,27.83
2022-08-17T14:44:30.656Z,29.63
2022-08-17T14:46:56.987Z,29.98
2022-08-17T14:49:23.869Z,26.40
2022-08-17T14:51:50.337Z,29.90
2022-08-17T14:54:32.924Z,31.98
2022-08-17T14:57:23.283Z,26.67
2022-08-17T14:59:48.376Z,31.02
2022-08-17T15:02:19.729Z,29.17
2022-08-17T15:04:47.803Z,28.50
2022-08-17T15:07:17.799Z,24.63
2022-08-17T15:09:44.461Z,31.13
2022-08-17T15:12:16.716Z,29.10
2022-08-17T15:14:43.040Z,33.65
2022-08-17T15:17:09.376Z,32.03
2022-08-17T15:19:35.699Z,30.58
2022-08-17T15:22:02.018Z,33.33
2022-08-17T15:24:28.388Z,30.42
2022-08-17T15:26:54.725Z,30.55
2022-08-17T15:29:21.190Z,33.17
2022-08-17T15:31:47.820Z,32.38
2022-08-17T15:34:14.361Z,34.08
2022-08-17T15:36:40.743Z,31.73
2022-08-17T15:39:15.613Z,30.52
2022-08-17T15:41:47.270Z,31.15
2022-08-17T15:44:24.524Z,33.05
2022-08-17T15:46:59.150Z,36.10
2022-08-17T15:49:25.673Z,32.78
2022-08-17T15:51:52.020Z,38.08
2022-08-17T15:54:22.584Z,39.22
2022-08-17T15:56:50.148Z,37.15
2022-08-17T15:59:16.472Z,34.20
2022-08-17T16:03:04.657Z,36.50
2022-08-17T16:04:30.957Z,33.72
2022-08-17T16:06:59.025Z,37.03
2022-08-17T16:09:25.335Z,36.67
2022-08-17T16:11:53.790Z,36.78
2022-08-17T16:14:22.357Z,36.25
2022-08-17T16:16:50.357Z,34.85
2022-08-17T16:19:16.701Z,31.30
2022-08-17T16:21:43.398Z,35.65
2022-08-17T16:24:13.637Z,38.15
2022-08-17T16:26:41.630Z,35.28
2022-08-17T16:29:08.228Z,36.22
2022-08-17T16:31:35.962Z,35.03
2022-08-17T16:34:17.207Z,42.38
2022-08-17T16:36:51.770Z,33.78
2022-08-17T16:39:23.530Z,40.33
2022-08-17T16:41:50.283Z,37.42
2022-08-17T16:44:17.906Z,35.83
2022-08-17T16:46:45.749Z,36.55
2022-08-17T16:49:13.535Z,36.42
2022-08-17T16:52:01.538Z,37.80
2022-08-17T16:54:27.906Z,34.60
2022-08-17T16:56:54.230Z,39.40
2022-08-17T16:59:30.730Z,38.20
2022-08-17T17:02:11.218Z,39.00
2022-08-17T17:04:43.502Z,42.15
2022-08-17T17:07:12.649Z,44.33
2022-08-17T17:09:39.062Z,38.67
2022-08-17T17:12:12.874Z,39.85
2022-08-17T17:14:41.145Z,40.35
2022-08-17T17:17:13.415Z,39.88
2022-08-17T17:19:45.409Z,37.92
2022-08-17T17:22:11.707Z,39.80
2022-08-17T17:25:01.365Z,43.38
2022-08-17T17:27:42.707Z,39.25
2022-08-17T17:30:24.159Z,40.03
2022-08-17T17:33:05.711Z,43.60
2022-08-17T17:35:33.726Z,39.88
2022-08-17T17:38:05.171Z,38.42
2022-08-17T17:40:50.093Z,42.72
2022-08-17T17:43:39.836Z,44.63
2022-08-17T17:46:27.943Z,38.72
2022-08-17T17:48:55.441Z,39.67
2022-08-17T17:51:55.012Z,45.08
2022-08-17T17:54:19.193Z,39.47
2022-08-17T17:56:49.757Z,38.53
2022-08-17T17:59:29.130Z,42.67
2022-08-17T18:02:05.959Z,40.55
2022-08-17T18:04:36.638Z,42.65
2022-08-17T18:07:03.154Z,40.25
2022-08-17T18:09:38.413Z,42.05
2022-08-17T18:12:20.463Z,43.03
2022-08-17T18:14:56.398Z,39.70
2022-08-17T18:17:23.937Z,39.33
2022-08-17T18:19:50.521Z,41.65
2022-08-17T18:22:20.508Z,39.30
2022-08-17T18:24:48.844Z,39.03
2022-08-17T18:27:21.423Z,36.50
2022-08-17T18:29:48.639Z,38.97
2022-08-17T18:32:18.895Z,36.60
2022-08-17T18:34:48.070Z,36.72
2022-08-17T18:37:29.221Z,35.20
2022-08-17T18:39:55.678Z,39.97
2022-08-17T18:42:28.825Z,35.75
2022-08-17T18:44:55.671Z,38.97
2022-08-17T18:47:28.968Z,41.17
2022-08-17T18:50:02.000Z,38.15
2022-08-17T18:52:29.984Z,39.60
2022-08-17T18:54:59.597Z,38.53
2022-08-17T18:57:46.355Z,40.20
2022-08-17T19:00:31.685Z,36.38
2022-08-17T19:03:02.379Z,35.63
2022-08-17T19:05:36.845Z,34.65
2022-08-17T19:08:18.606Z,42.05
2022-08-17T19:10:47.331Z,40.80
2022-08-17T19:13:24.084Z,36.83
2022-08-17T19:16:12.070Z,36.13
2022-08-17T19:19:01.244Z,39.60
2022-08-17T19:21:27.580Z,42.08
2022-08-17T19:23:59.201Z,40.97
2022-08-17T19:26:54.647Z,38.60
2022-08-17T19:29:22.114Z,36.95
2022-08-17T19:31:49.120Z,36.33
2022-08-17T19:34:17.210Z,37.83
2022-08-17T19:37:02.187Z,45.65
2022-08-17T19:39:38.282Z,37.38
2022-08-17T19:42:11.239Z,41.13
2022-08-17T19:44:48.898Z,42.90
2022-08-17T19:47:53.320Z,40.25
2022-08-17T19:50:23.823Z,41.40
2022-08-17T19:52:53.378Z,41.08
2022-08-17T19:55:47.667Z,46.90
2022-08-17T19:58:31.785Z,40.15
2022-08-17T20:01:00.286Z,45.85
2022-08-17T20:03:44.788Z,48.50
2022-08-17T20:06:14.557Z,45.92
2022-08-17T20:08:48.531Z,43.13
2022-08-17T20:11:30.970Z,46.78
2022-08-17T20:14:05.428Z,42.65
2022-08-17T20:16:32.783Z,49.33
2022-08-17T20:19:01.023Z,44.85
2022-08-17T20:21:39.708Z,47.45
2022-08-17T20:24:12.108Z,52.08
2022-08-17T20:26:55.164Z,54.53
2022-08-17T20:29:39.594Z,50.60
2022-08-17T20:32:14.183Z,53.22
2022-08-17T20:34:41.010Z,53.85
2022-08-17T20:37:25.693Z,56.88
2022-08-17T20:39:58.793Z,52.92
2022-08-17T20:42:26.303Z,53.97
2022-08-17T20:44:58.183Z,50.42
2022-08-17T20:47:35.182Z,48.50
2022-08-17T20:50:10.484Z,45.55
2022-08-17T20:52:53.740Z,51.17
2022-08-17T20:55:51.520Z,47.45
2022-08-17T20:58:24.670Z,43.30
2022-08-17T21:00:57.143Z,43.53
2022-08-17T21:03:23.825Z,46.20
2022-08-17T21:05:57.380Z,43.70
2022-08-17T21:08:27.627Z,40.55
2022-08-17T21:10:54.629Z,48.33
2022-08-17T21:13:34.977Z,41.80
2022-08-17T21:16:23.222Z,45.13
2022-08-17T21:18:58.442Z,40.50
2022-08-17T21:21:31.310Z,39.42
2022-08-17T21:23:57.744Z,40.83
2022-08-17T21:26:50.444Z,43.10
2022-08-17T21:29:31.608Z,49.10
2022-08-17T21:32:01.724Z,50.58
2022-08-17T21:34:44.299Z,54.53
2022-08-17T21:37:20.032Z,49.70
2022-08-17T21:39:51.585Z,50.85
2022-08-17T21:42:22.986Z,48.95
2022-08-17T21:44:50.958Z,42.70
2022-08-17T21:47:25.345Z,45.22
2022-08-17T21:49:54.782Z,49.35
2022-08-17T21:52:23.961Z,47.95
2022-08-17T21:54:52.206Z,45.08
2022-08-17T21:57:29.509Z,46.03
2022-08-17T22:00:03.529Z,43.72
2022-08-17T22:02:34.637Z,41.25
2022-08-17T22:05:02.683Z,46.65
2022-08-17T22:07:40.918Z,42.60
2022-08-17T22:10:09.418Z,43.28
2022-08-17T22:12:35.889Z,40.35
2022-08-17T22:15:15.770Z,40.72
2022-08-17T22:17:46.540Z,41.95
2022-08-17T22:20:15.793Z,41.40
2022-08-17T22:23:07.203Z,38.70
2022-08-17T22:25:37.976Z,36.33
2022-08-17T22:28:06.013Z,36.67
2022-08-17T22:30:32.552Z,39.65
2022-08-17T22:32:59.408Z,40.35
2022-08-17T22:35:29.148Z,42.92
2022-08-17T22:37:56.236Z,41.65
2022-08-17T22:40:29.108Z,41.60
2022-08-17T22:42:57.560Z,38.80
2022-08-17T22:45:27.295Z,45.17
2022-08-17T22:47:55.804Z,42.70
2022-08-17T22:50:26.797Z,40.90
2022-08-17T22:53:19.555Z,35.50
2022-08-17T22:56:28.885Z,41.30
2022-08-17T22:59:19.417Z,36.42
2022-08-17T23:02:04.779Z,38.60
2022-08-17T23:04:31.339Z,40.30
2022-08-17T23:06:58.200Z,36.22
2022-08-17T23:09:24.583Z,40.60
2022-08-17T23:11:52.996Z,41.92
2022-08-17T23:14:20.991Z,34.58
2022-08-17T23:16:48.299Z,34.85
2022-08-17T23:19:16.258Z,35.70
2022-08-17T23:21:44.925Z,38.97
2022-08-17T23:24:14.541Z,41.95
2022-08-17T23:26:41.127Z,35.92
2022-08-17T23:29:09.117Z,39.20
2022-08-17T23:31:38.008Z,38.13
2022-08-17T23:34:05.781Z,30.00
2022-08-17T23:36:36.079Z,39.05
2022-08-17T23:39:03.490Z,37.33
2022-08-17T23:41:33.179Z,39.65
2022-08-17T23:44:00.483Z,36.05
2022-08-17T23:46:27.070Z,34.40
2022-08-17T23:48:54.106Z,36.67
2022-08-17T23:51:26.747Z,36.53
2022-08-17T23:53:58.114Z,42.00
2022-08-17T23:56:25.984Z,40.30
2022-08-17T23:58:54.879Z,41.35
